Hlavní strana
METAR-TAF:

METAR-TAF

Letiště :

Valladolid, Španělsko

zeměpisná šířka: 41-43N, zeměpisná délka: 004-51W, výška: 849 m

Aktuální stav počasí

Zpráva byla vytvořena před 33 minutami, v 04:00 UTC
Východoseverovýchodní vítr 14 kt
Teplota 11°C
Vlhkost vzduchu 66%
Tlak 1027 hPa
Viditelnost 10 km a více
Žádná oblačnost pod 1500 m, nevyskytují se cumulonimby.

METAR: LEVD 260400Z AUTO 06014KT CAVOK 11/05 Q1027

Čas: 06:33 (04:33 UTC)

Předpověď počasí

Zpráva byla vytvořena před 5 hodinami a 33 minutami, v 23:00 UTC
Předpověď platná od 26 v 00 UTC do 26 v 24 UTC
Severovýchodní vítr 15 kt
Viditelnost 10 km a více
Žádná oblačnost pod 1500 m, nevyskytují se cumulonimby.
Pravděpodobnost 30% :
Dočasný
od 26 v 14 UTC do 26 v 21 UTC
vítr z různých směrů 15 kt s nárazy do 25 kt
Polojasno ve výšce 4000 ft, Cumulonimbus.
bouřka, dešťové přeháňky

TAF: LEVD 252300Z 2600/2624 05015KT CAVOK TX24/2615Z TN11/2604Z PROB30 TEMPO 2614/2621 VRB15G25KT TS SHRA SCT040CB

Stav a předpovědi počasí z více než 4 000 letišť (zprávy METAR a TAF).

Červené a žluté tečky na mapě představují dostupné meteorologické stanice.

Když kurzor umístíte na tečku, zobrazí se název stanice.

Pak kliknutím zobrazíte stav a předpověď počasí.

Chcete-li změnit mapu, kliknutím na zelené tlačítko se znaménkem +mapu přiblížíte, kliknutím na zelené tlačítko se znaménkem – mapu oddálíte a kliknutím na zelené šipky přejdete na sousední mapy.


METAR-TAF: